Time;durP1;ratioP1;P1;durP2;ratioP2;P2;SDS_P1;SDS_P2;PMS_P1;PMS_P2;Temp;Humidity;BMP_temperature;BMP_pressure;BME280_temperature;BME280_humidity;BME280_pressure;Samples;Min_cycle;Max_cycle;Signal;HPM_P1;HPM_P2
2022/12/24 00:00:23;;;;;;;4.33;1.60;;;12.10;98.00;;;;;;5051724;28;20857;-72
2022/12/24 00:02:51;;;;;;;1.73;1.13;;;12.10;98.00;;;;;;5051339;28;20461;-74
2022/12/24 00:05:18;;;;;;;2.70;1.30;;;12.00;98.00;;;;;;5051793;28;20977;-73
2022/12/24 00:07:46;;;;;;;1.53;1.10;;;12.10;98.00;;;;;;5051600;28;20471;-73
2022/12/24 00:10:13;;;;;;;1.30;1.00;;;12.00;98.00;;;;;;5051694;28;20459;-73
2022/12/24 00:12:41;;;;;;;1.30;1.20;;;12.00;98.00;;;;;;5051814;28;20453;-72
2022/12/24 00:15:10;;;;;;;1.60;1.20;;;12.10;98.00;;;;;;5051648;28;21115;-72
2022/12/24 00:17:38;;;;;;;1.30;1.07;;;12.10;98.00;;;;;;5051530;28;20552;-72
2022/12/24 00:20:09;;;;;;;1.70;1.13;;;12.10;98.00;;;;;;5051655;28;20454;-72
2022/12/24 00:22:37;;;;;;;1.90;1.20;;;12.10;98.00;;;;;;5055139;28;20557;-71
2022/12/24 00:25:06;;;;;;;1.47;1.10;;;12.10;98.00;;;;;;5055196;28;20465;-72
2022/12/24 00:27:33;;;;;;;2.03;1.40;;;12.10;98.00;;;;;;5055056;28;20815;-71
2022/12/24 00:30:01;;;;;;;2.43;1.30;;;12.10;98.00;;;;;;5054831;28;20510;-72
2022/12/24 00:32:28;;;;;;;1.87;1.13;;;12.10;98.00;;;;;;5054926;28;20455;-72
2022/12/24 00:34:56;;;;;;;10.83;1.20;;;12.10;98.00;;;;;;5054935;28;20468;-72
2022/12/24 00:37:24;;;;;;;3.70;1.83;;;12.10;98.00;;;;;;5055197;28;20480;-73
2022/12/24 00:39:51;;;;;;;2.63;1.40;;;12.20;98.00;;;;;;5054968;28;20487;-72
2022/12/24 00:42:19;;;;;;;1.63;1.37;;;12.20;98.00;;;;;;5055245;28;20966;-72
2022/12/24 00:44:47;;;;;;;1.20;1.10;;;12.20;98.00;;;;;;5055095;28;20557;-72
2022/12/24 00:47:24;;;;;;;1.40;1.07;;;12.20;98.00;;;;;;5054935;28;20548;-72
2022/12/24 00:49:51;;;;;;;2.23;1.30;;;12.20;98.00;;;;;;5055095;28;20456;-72
2022/12/24 00:52:20;;;;;;;2.53;1.30;;;12.20;98.00;;;;;;5054621;28;20828;-72
2022/12/24 00:54:51;;;;;;;1.20;1.10;;;12.20;98.00;;;;;;5054482;28;20452;-72
2022/12/24 00:57:19;;;;;;;2.03;1.23;;;12.20;98.00;;;;;;5054538;28;20517;-72
2022/12/24 00:59:52;;;;;;;1.60;1.30;;;12.20;98.00;;;;;;5054462;28;20457;-72
2022/12/24 01:02:19;;;;;;;1.70;1.30;;;12.20;98.00;;;;;;5054382;28;20461;-72
2022/12/24 01:07:35;;;;;;;2.40;1.10;;;12.10;98.00;;;;;;5054524;28;20436;-72
2022/12/24 01:10:02;;;;;;;1.27;1.13;;;12.10;98.00;;;;;;5054236;28;20463;-73
2022/12/24 01:12:32;;;;;;;1.40;1.27;;;12.10;98.00;;;;;;5054508;28;20467;-73
2022/12/24 01:14:59;;;;;;;1.40;1.10;;;12.00;98.00;;;;;;5054396;28;20486;-73
2022/12/24 01:17:27;;;;;;;1.80;1.30;;;12.10;98.00;;;;;;5054081;28;20492;-72
2022/12/24 01:19:54;;;;;;;1.40;1.20;;;12.00;98.00;;;;;;5054162;28;20450;-73
2022/12/24 01:22:21;;;;;;;1.23;1.10;;;12.10;98.00;;;;;;5053897;28;20488;-72
2022/12/24 01:24:50;;;;;;;1.30;1.10;;;12.10;98.00;;;;;;5054119;28;20553;-73
2022/12/24 01:27:17;;;;;;;1.30;1.10;;;12.10;98.00;;;;;;5053649;28;20463;-72
2022/12/24 01:29:44;;;;;;;2.30;1.60;;;12.10;98.00;;;;;;5053669;28;20530;-72
2022/12/24 01:32:12;;;;;;;1.50;1.30;;;12.10;98.00;;;;;;5053486;28;20967;-72
2022/12/24 01:34:40;;;;;;;1.70;1.20;;;12.10;98.00;;;;;;5052936;28;20476;-72
2022/12/24 01:37:06;;;;;;;1.43;1.17;;;12.10;98.00;;;;;;5052834;28;20528;-72
2022/12/24 01:39:34;;;;;;;1.73;1.30;;;12.00;98.00;;;;;;5052843;28;20457;-72
2022/12/24 01:44:51;;;;;;;14.60;2.03;;;11.80;98.00;;;;;;5053535;28;20505;-72
2022/12/24 01:47:21;;;;;;;2.23;1.40;;;11.80;98.00;;;;;;5053262;28;20506;-72
2022/12/24 01:49:52;;;;;;;2.33;1.50;;;11.70;98.00;;;;;;5053307;28;20455;-72
2022/12/24 01:52:22;;;;;;;1.30;1.30;;;11.60;98.00;;;;;;5256309;22;20546;-72
2022/12/24 01:54:53;;;;;;;4.30;1.57;;;11.60;98.00;;;;;;5053240;28;20510;-72
2022/12/24 01:57:26;;;;;;;1.60;1.50;;;11.50;98.00;;;;;;5053005;28;20478;-72
2022/12/24 01:59:58;;;;;;;4.80;1.53;;;11.50;98.00;;;;;;5053096;28;20464;-72
2022/12/24 02:02:26;;;;;;;1.50;1.20;;;11.70;98.00;;;;;;5052765;28;20460;-72
2022/12/24 02:04:58;;;;;;;2.00;1.37;;;11.70;98.00;;;;;;5053017;28;20470;-72
2022/12/24 02:07:32;;;;;;;1.53;1.30;;;11.70;98.00;;;;;;5052873;28;20450;-72
2022/12/24 02:10:01;;;;;;;2.27;1.30;;;11.60;98.00;;;;;;5052394;28;20512;-72
2022/12/24 02:12:32;;;;;;;2.67;1.40;;;11.30;98.00;;;;;;5051391;28;20572;-72
2022/12/24 02:14:59;;;;;;;1.30;1.20;;;11.20;98.00;;;;;;5052534;28;20937;-72
2022/12/24 02:17:32;;;;;;;1.57;1.17;;;11.20;98.00;;;;;;5052445;28;20479;-72
2022/12/24 02:20:30;;;;;;;1.77;1.20;;;11.10;98.00;;;;;;5052836;28;20455;-72
2022/12/24 02:23:29;;;;;;;1.30;1.10;;;11.10;98.00;;;;;;5052473;28;20463;-72
2022/12/24 02:26:10;;;;;;;1.40;1.20;;;11.10;98.00;;;;;;5051409;28;20458;-72
2022/12/24 02:29:13;;;;;;;2.00;1.30;;;10.90;98.00;;;;;;5052329;28;20833;-72
2022/12/24 02:31:45;;;;;;;1.20;1.10;;;10.90;98.00;;;;;;5052461;28;20469;-72
2022/12/24 02:34:20;;;;;;;1.77;1.30;;;11.00;98.00;;;;;;5051332;28;20552;-72
2022/12/24 02:36:53;;;;;;;1.60;1.20;;;11.00;98.00;;;;;;5052484;28;20464;-72
2022/12/24 02:39:28;;;;;;;2.80;1.33;;;10.90;98.00;;;;;;5051178;28;20489;-72
2022/12/24 02:42:06;;;;;;;1.20;1.10;;;10.80;98.00;;;;;;5052365;28;20458;-72
2022/12/24 02:44:39;;;;;;;1.40;1.30;;;10.80;98.00;;;;;;5051994;28;20523;-72
2022/12/24 02:47:10;;;;;;;3.93;1.73;;;10.70;98.00;;;;;;5052293;28;20468;-70
2022/12/24 02:49:37;;;;;;;1.57;1.50;;;10.80;98.00;;;;;;5052299;28;20472;-70
2022/12/24 02:52:05;;;;;;;2.40;1.27;;;10.80;98.00;;;;;;5052082;28;20466;-70
2022/12/24 02:54:32;;;;;;;2.67;1.30;;;10.80;98.00;;;;;;5052390;28;20511;-70
2022/12/24 02:57:12;;;;;;;3.40;2.60;;;10.70;98.00;;;;;;5052117;28;20545;-70
2022/12/24 02:59:56;;;;;;;1.60;1.23;;;10.80;98.00;;;;;;5051894;28;20476;-70
2022/12/24 03:02:36;;;;;;;1.43;1.20;;;10.70;98.00;;;;;;5051899;28;20465;-70
2022/12/24 03:05:12;;;;;;;1.20;1.10;;;10.60;98.00;;;;;;5052061;28;20810;-70
2022/12/24 03:07:49;;;;;;;2.80;1.23;;;10.60;98.00;;;;;;5051973;28;20454;-70
2022/12/24 03:10:23;;;;;;;1.10;1.10;;;10.70;98.00;;;;;;5051746;28;20468;-70
2022/12/24 03:12:54;;;;;;;1.80;1.20;;;10.80;98.00;;;;;;5051663;28;20458;-70
2022/12/24 03:15:24;;;;;;;4.50;1.50;;;10.70;98.00;;;;;;5051847;28;20457;-70
2022/12/24 03:17:58;;;;;;;3.10;1.30;;;10.70;98.00;;;;;;5051142;28;20484;-70
2022/12/24 03:20:31;;;;;;;1.90;1.50;;;10.60;98.00;;;;;;5051773;28;20450;-70
2022/12/24 03:22:58;;;;;;;1.40;1.23;;;10.60;98.00;;;;;;5051638;28;20458;-70
2022/12/24 03:25:27;;;;;;;2.07;1.50;;;10.70;98.00;;;;;;5051772;28;20827;-70
2022/12/24 03:27:56;;;;;;;1.20;1.10;;;10.60;98.00;;;;;;5051607;28;20458;-70
2022/12/24 03:30:24;;;;;;;2.40;1.20;;;10.50;98.00;;;;;;5051795;28;20453;-70
2022/12/24 03:32:53;;;;;;;2.87;1.40;;;10.50;98.00;;;;;;5051684;28;21010;-70
2022/12/24 03:35:20;;;;;;;1.80;1.70;;;10.50;98.00;;;;;;5051693;28;20461;-70
2022/12/24 03:37:47;;;;;;;1.30;1.30;;;10.50;98.00;;;;;;5051521;28;21020;-70
2022/12/24 03:40:15;;;;;;;2.40;1.73;;;10.60;98.00;;;;;;5051984;28;20459;-70
2022/12/24 03:42:43;;;;;;;2.20;1.80;;;10.50;98.00;;;;;;5051650;28;21015;-70
2022/12/24 03:45:11;;;;;;;3.07;1.10;;;10.60;98.00;;;;;;5050617;28;20461;-70
2022/12/24 03:47:38;;;;;;;1.93;1.20;;;10.60;98.00;;;;;;5051594;28;20460;-70
2022/12/24 03:50:08;;;;;;;2.07;1.20;;;10.50;98.00;;;;;;5051682;28;20508;-70
2022/12/24 03:52:35;;;;;;;1.30;1.10;;;10.70;98.00;;;;;;5051522;28;20467;-70
2022/12/24 03:55:03;;;;;;;2.70;1.20;;;10.70;98.00;;;;;;5051385;28;20465;-70
2022/12/24 03:57:30;;;;;;;3.60;1.40;;;10.60;98.00;;;;;;5053765;28;20530;-70
2022/12/24 03:59:58;;;;;;;1.30;1.27;;;10.50;98.00;;;;;;5054228;28;20454;-70
2022/12/24 04:02:25;;;;;;;1.80;1.13;;;10.60;98.00;;;;;;5055175;28;20472;-70
2022/12/24 04:04:52;;;;;;;2.00;1.80;;;10.50;98.00;;;;;;5055127;28;20843;-70
2022/12/24 04:07:21;;;;;;;2.50;1.27;;;10.40;98.00;;;;;;5055136;28;20449;-70
2022/12/24 04:09:48;;;;;;;1.30;1.10;;;10.30;98.00;;;;;;5054902;28;20454;-70
2022/12/24 04:12:15;;;;;;;1.87;1.30;;;10.30;98.00;;;;;;5055023;28;20954;-70
2022/12/24 04:14:42;;;;;;;1.60;1.20;;;10.30;98.00;;;;;;5054919;28;20467;-70
2022/12/24 04:17:12;;;;;;;1.20;1.10;;;10.30;98.00;;;;;;5054946;28;20459;-70
2022/12/24 04:19:39;;;;;;;2.80;1.17;;;10.50;98.00;;;;;;5054864;28;20487;-70
2022/12/24 04:22:12;;;;;;;3.73;1.23;;;10.50;98.00;;;;;;5054831;28;20459;-70
2022/12/24 04:24:40;;;;;;;1.40;1.30;;;10.50;98.00;;;;;;5054900;28;20454;-70
2022/12/24 04:27:07;;;;;;;1.63;1.20;;;10.40;98.00;;;;;;5053462;28;20989;-70
2022/12/24 04:29:34;;;;;;;1.30;1.17;;;10.30;98.00;;;;;;5054729;28;20459;-70
2022/12/24 04:32:02;;;;;;;1.53;1.10;;;10.30;98.00;;;;;;5054638;28;20457;-70
2022/12/24 04:34:29;;;;;;;2.53;1.70;;;10.40;98.00;;;;;;5054744;28;20453;-70
2022/12/24 04:36:56;;;;;;;1.23;1.10;;;10.40;98.00;;;;;;5053517;28;20453;-70
2022/12/24 04:39:23;;;;;;;2.63;1.80;;;10.40;98.00;;;;;;5054555;28;20540;-70
2022/12/24 04:41:51;;;;;;;1.93;1.33;;;10.30;98.00;;;;;;5054544;28;20464;-70
2022/12/24 04:44:18;;;;;;;3.30;1.63;;;10.20;98.00;;;;;;5054725;28;20453;-70
2022/12/24 04:46:45;;;;;;;1.73;1.27;;;10.10;98.00;;;;;;5054734;28;20470;-70
2022/12/24 04:49:12;;;;;;;1.10;1.10;;;10.00;98.00;;;;;;5054567;28;20477;-70
2022/12/24 04:51:40;;;;;;;1.30;1.20;;;10.10;98.00;;;;;;5054079;28;20519;-70
2022/12/24 04:54:07;;;;;;;1.60;1.40;;;10.20;98.00;;;;;;5054371;28;20462;-70
2022/12/24 04:56:35;;;;;;;1.20;1.20;;;10.40;98.00;;;;;;5054092;28;20455;-70
2022/12/24 04:59:04;;;;;;;3.17;1.40;;;10.40;98.00;;;;;;5054132;28;20525;-70
2022/12/24 05:01:32;;;;;;;3.13;1.63;;;10.40;98.00;;;;;;5054332;28;20468;-70
2022/12/24 05:04:01;;;;;;;2.90;1.37;;;10.30;98.00;;;;;;5054191;28;20835;-70
2022/12/24 05:06:31;;;;;;;1.40;1.40;;;10.20;98.00;;;;;;5053833;28;20503;-70
2022/12/24 05:08:59;;;;;;;1.23;1.17;;;10.20;98.00;;;;;;5053905;28;20457;-70
2022/12/24 05:11:26;;;;;;;1.43;1.30;;;10.10;98.00;;;;;;5054067;28;20800;-70
2022/12/24 05:13:53;;;;;;;1.20;1.20;;;10.10;98.00;;;;;;5053860;28;20937;-70
2022/12/24 05:16:23;;;;;;;1.83;1.20;;;10.10;98.00;;;;;;5053905;28;20488;-70
2022/12/24 05:18:51;;;;;;;1.30;1.10;;;10.10;98.00;;;;;;5053857;28;20489;-70
2022/12/24 05:21:20;;;;;;;3.23;1.50;;;10.10;98.00;;;;;;5053888;28;20458;-70
2022/12/24 05:26:35;;;;;;;2.03;1.30;;;10.20;98.00;;;;;;5053856;28;20433;-70
2022/12/24 05:29:04;;;;;;;1.60;1.20;;;10.10;98.00;;;;;;5052622;28;20512;-70
2022/12/24 05:31:33;;;;;;;2.00;1.30;;;10.10;98.00;;;;;;5053607;28;20460;-70
2022/12/24 05:34:00;;;;;;;1.70;1.30;;;10.00;98.00;;;;;;5053515;28;20449;-70
2022/12/24 05:36:27;;;;;;;1.50;1.40;;;10.00;98.00;;;;;;5052550;28;20456;-70
2022/12/24 05:38:54;;;;;;;1.80;1.30;;;10.00;98.00;;;;;;5053543;28;20548;-70
2022/12/24 05:41:22;;;;;;;2.40;1.87;;;10.10;98.00;;;;;;5053760;28;20458;-70
2022/12/24 05:43:49;;;;;;;1.40;1.10;;;10.20;98.00;;;;;;5053394;28;20458;-70
2022/12/24 05:46:19;;;;;;;5.23;1.80;;;10.20;98.00;;;;;;5053287;28;20819;-70
2022/12/24 05:48:49;;;;;;;2.00;1.50;;;10.30;98.00;;;;;;5053271;28;21218;-70
2022/12/24 05:51:18;;;;;;;4.07;1.80;;;10.10;98.00;;;;;;5052989;28;20955;-70
2022/12/24 05:53:46;;;;;;;10.37;2.13;;;10.00;98.00;;;;;;5053069;28;20474;-70
2022/12/24 05:56:15;;;;;;;5.40;1.87;;;10.10;98.00;;;;;;5053209;28;20453;-70
2022/12/24 05:58:43;;;;;;;1.80;1.30;;;10.00;98.00;;;;;;5052935;28;20488;-70
2022/12/24 06:01:11;;;;;;;2.70;1.50;;;9.90;98.00;;;;;;5053029;28;20461;-70
2022/12/24 06:03:39;;;;;;;1.77;1.20;;;9.80;98.00;;;;;;5052962;28;20482;-70
2022/12/24 06:06:09;;;;;;;1.60;1.30;;;9.80;98.00;;;;;;5053123;28;20462;-70
2022/12/24 06:08:38;;;;;;;1.30;1.27;;;9.80;98.00;;;;;;5052846;28;20467;-70
2022/12/24 06:11:09;;;;;;;2.93;1.37;;;9.80;98.00;;;;;;5052884;28;20825;-70
2022/12/24 06:13:36;;;;;;;1.27;1.10;;;9.80;98.00;;;;;;5052709;28;20595;-70
2022/12/24 06:16:06;;;;;;;1.40;1.30;;;9.90;98.00;;;;;;5051753;28;20461;-70
2022/12/24 06:18:34;;;;;;;1.57;1.30;;;9.90;98.00;;;;;;5051765;28;20458;-70
2022/12/24 06:21:05;;;;;;;1.30;1.20;;;10.00;98.00;;;;;;5052849;28;20460;-70
2022/12/24 06:23:36;;;;;;;2.63;1.30;;;10.00;98.00;;;;;;5052666;28;20464;-70
2022/12/24 06:26:07;;;;;;;1.23;1.20;;;10.00;98.00;;;;;;5052675;28;20446;-70
2022/12/24 06:28:36;;;;;;;3.50;1.37;;;10.10;98.00;;;;;;5052706;28;20461;-70
2022/12/24 06:31:04;;;;;;;8.30;1.50;;;10.10;98.00;;;;;;5052722;28;20958;-70
2022/12/24 06:33:31;;;;;;;1.40;1.03;;;10.30;98.00;;;;;;5052617;28;20854;-70
2022/12/24 06:35:59;;;;;;;2.47;1.37;;;10.30;98.00;;;;;;5052727;28;20515;-70
2022/12/24 06:38:26;;;;;;;2.03;1.30;;;10.10;98.00;;;;;;5052335;28;20469;-70
2022/12/24 06:40:55;;;;;;;3.47;1.23;;;10.10;98.00;;;;;;5052181;28;20538;-70
2022/12/24 06:43:22;;;;;;;1.60;1.40;;;10.10;98.00;;;;;;5052224;28;20454;-70
2022/12/24 06:45:50;;;;;;;3.40;1.60;;;10.00;98.00;;;;;;5052041;28;20464;-70
2022/12/24 06:48:17;;;;;;;3.37;1.23;;;10.10;98.00;;;;;;5050876;28;21139;-70
2022/12/24 06:50:44;;;;;;;3.00;1.10;;;10.10;98.00;;;;;;5052005;28;20481;-70
2022/12/24 06:53:11;;;;;;;1.10;1.00;;;10.20;98.00;;;;;;5050618;28;20492;-70
2022/12/24 06:55:38;;;;;;;1.80;1.40;;;10.20;98.00;;;;;;5052124;28;20455;-70
2022/12/24 06:58:07;;;;;;;2.60;1.20;;;10.30;98.00;;;;;;5051938;28;20976;-70
2022/12/24 07:00:34;;;;;;;1.10;1.00;;;10.40;98.00;;;;;;5072033;28;20510;-69
2022/12/24 07:03:01;;;;;;;4.20;1.20;;;10.40;98.00;;;;;;5072108;28;20497;-69
2022/12/24 07:05:38;;;;;;;3.50;1.20;;;10.50;98.00;;;;;;5072227;28;20504;-67
2022/12/24 07:08:11;;;;;;;2.50;1.20;;;10.50;98.00;;;;;;5240945;22;20597;-69
2022/12/24 07:10:38;;;;;;;1.90;1.40;;;10.60;98.00;;;;;;5032025;28;20455;-67
2022/12/24 07:15:36;;;;;;;1.17;1.07;;;10.50;98.00;;;;;;5049183;28;20473;-68
2022/12/24 07:18:03;;;;;;;1.73;1.40;;;10.40;98.00;;;;;;5050953;28;20464;-68
2022/12/24 07:20:30;;;;;;;2.73;1.30;;;10.40;98.00;;;;;;5050908;28;20531;-67
2022/12/24 07:22:57;;;;;;;1.60;1.30;;;10.40;98.00;;;;;;5050981;28;20457;-66
2022/12/24 07:25:25;;;;;;;2.13;1.20;;;10.40;98.00;;;;;;5049838;28;20450;-67
2022/12/24 07:27:52;;;;;;;1.50;1.40;;;10.40;98.00;;;;;;5051355;28;20522;-68
2022/12/24 07:30:20;;;;;;;1.87;1.37;;;10.40;98.00;;;;;;5053290;28;20879;-68
2022/12/24 07:32:48;;;;;;;2.30;1.50;;;10.50;98.00;;;;;;5038237;28;20446;-69
2022/12/24 07:35:15;;;;;;;1.70;1.40;;;10.60;98.00;;;;;;5055048;28;20450;-68
2022/12/24 07:37:42;;;;;;;2.60;1.33;;;10.60;98.00;;;;;;5037719;28;21130;-69
2022/12/24 07:40:10;;;;;;;3.00;1.53;;;10.70;98.00;;;;;;5055473;28;20484;-68
2022/12/24 07:42:37;;;;;;;1.20;1.10;;;10.70;98.00;;;;;;5055326;28;20460;-68
2022/12/24 07:45:06;;;;;;;8.93;1.50;;;10.60;98.00;;;;;;5055640;28;20465;-67
2022/12/24 07:47:33;;;;;;;2.80;1.40;;;10.60;98.00;;;;;;5055289;28;20454;-67
2022/12/24 07:50:02;;;;;;;1.70;1.30;;;10.70;98.00;;;;;;5055642;28;20463;-69
2022/12/24 07:52:29;;;;;;;2.70;1.83;;;10.70;98.00;;;;;;5055254;28;20465;-68
2022/12/24 07:54:59;;;;;;;1.20;1.03;;;10.70;98.00;;;;;;5037990;28;20823;-69
2022/12/24 07:57:26;;;;;;;2.10;1.40;;;10.70;98.00;;;;;;5055375;28;20465;-67
2022/12/24 07:59:56;;;;;;;1.27;1.20;;;10.70;98.00;;;;;;5055253;28;20542;-68
2022/12/24 08:02:23;;;;;;;1.50;1.40;;;10.60;98.00;;;;;;5055313;28;20544;-67
2022/12/24 08:04:50;;;;;;;1.60;1.40;;;10.70;98.00;;;;;;5055273;28;20457;-70
2022/12/24 08:07:19;;;;;;;1.37;1.27;;;10.70;98.00;;;;;;5055491;28;20455;-69
2022/12/24 08:09:46;;;;;;;1.77;1.20;;;10.60;98.00;;;;;;5037377;28;20515;-71
2022/12/24 08:12:13;;;;;;;1.70;1.20;;;10.60;98.00;;;;;;5052397;28;20943;-69
2022/12/24 08:14:40;;;;;;;1.20;1.20;;;10.60;98.00;;;;;;5052147;28;20484;-66
2022/12/24 08:17:07;;;;;;;2.33;1.43;;;10.60;98.00;;;;;;5035223;28;20803;-69
2022/12/24 08:19:34;;;;;;;1.40;1.20;;;10.60;98.00;;;;;;5034611;28;20971;-67
2022/12/24 08:22:01;;;;;;;6.77;1.80;;;10.70;98.00;;;;;;5052586;28;20797;-69
2022/12/24 08:24:30;;;;;;;1.90;1.20;;;10.80;98.00;;;;;;5052421;28;20473;-69
2022/12/24 08:26:57;;;;;;;1.20;1.20;;;10.80;98.00;;;;;;5052027;28;20457;-69
2022/12/24 08:29:24;;;;;;;1.50;1.30;;;10.80;98.00;;;;;;5051487;28;20496;-67
2022/12/24 08:31:52;;;;;;;1.93;1.27;;;10.80;98.00;;;;;;5052268;28;20456;-71
2022/12/24 08:34:20;;;;;;;1.60;1.40;;;10.80;98.00;;;;;;5051908;28;20467;-68
2022/12/24 08:36:47;;;;;;;2.07;1.30;;;10.90;98.00;;;;;;5052110;28;20454;-70
2022/12/24 08:39:14;;;;;;;2.83;1.40;;;10.90;98.00;;;;;;5051303;28;20457;-70
2022/12/24 08:41:43;;;;;;;1.67;1.23;;;11.00;98.00;;;;;;5050665;28;20453;-70
2022/12/24 08:44:10;;;;;;;3.00;1.47;;;11.00;98.00;;;;;;5034130;28;20844;-69
2022/12/24 08:46:37;;;;;;;2.40;1.53;;;11.00;98.00;;;;;;5051741;28;20462;-69
2022/12/24 08:49:04;;;;;;;1.60;1.30;;;11.00;98.00;;;;;;5051621;28;20452;-70
2022/12/24 08:51:32;;;;;;;3.20;1.30;;;11.10;98.00;;;;;;5050847;28;20471;-68
2022/12/24 08:53:59;;;;;;;2.10;1.43;;;11.10;98.00;;;;;;5020296;28;20852;-69
2022/12/24 08:56:26;;;;;;;2.53;1.43;;;11.10;98.00;;;;;;5054417;28;20457;-70
2022/12/24 08:58:55;;;;;;;2.47;1.40;;;11.20;98.00;;;;;;5054381;28;20532;-68
2022/12/24 09:01:22;;;;;;;2.27;1.30;;;11.20;98.00;;;;;;5054312;28;20482;-71
2022/12/24 09:03:49;;;;;;;2.63;1.60;;;11.10;98.00;;;;;;5054377;28;20478;-69
2022/12/24 09:06:16;;;;;;;1.40;1.33;;;11.20;98.00;;;;;;5054202;28;20454;-69
2022/12/24 09:08:43;;;;;;;7.63;1.67;;;11.10;98.00;;;;;;5054153;28;20975;-71
2022/12/24 09:11:12;;;;;;;1.40;1.20;;;11.10;98.00;;;;;;5054409;28;20769;-69
2022/12/24 09:13:39;;;;;;;1.30;1.10;;;11.10;98.00;;;;;;5053912;28;21127;-70
2022/12/24 09:16:08;;;;;;;1.90;1.40;;;11.20;98.00;;;;;;5036777;28;20457;-71
2022/12/24 09:18:36;;;;;;;2.23;1.63;;;11.20;98.00;;;;;;5054008;28;20976;-70
2022/12/24 09:21:06;;;;;;;2.90;1.53;;;11.30;98.00;;;;;;5053691;28;20483;-69
2022/12/24 09:23:38;;;;;;;2.47;1.50;;;11.20;98.00;;;;;;5053774;28;20465;-68
2022/12/24 09:26:06;;;;;;;15.10;2.20;;;11.20;98.00;;;;;;5053787;28;20457;-69
2022/12/24 09:28:33;;;;;;;1.90;1.70;;;11.20;98.00;;;;;;5053479;28;20472;-68
2022/12/24 09:31:03;;;;;;;2.73;1.40;;;11.20;98.00;;;;;;5053713;28;20455;-69
2022/12/24 09:33:34;;;;;;;6.40;1.90;;;11.20;98.00;;;;;;5053314;28;20450;-71
2022/12/24 09:36:01;;;;;;;2.60;1.40;;;11.30;98.00;;;;;;5053831;28;20459;-69
2022/12/24 09:38:29;;;;;;;2.27;1.50;;;11.30;98.00;;;;;;5053387;28;20458;-71
2022/12/24 09:40:57;;;;;;;2.40;1.27;;;11.30;98.00;;;;;;5053416;28;20914;-71
2022/12/24 09:43:27;;;;;;;6.13;1.63;;;11.40;98.00;;;;;;5053341;28;20466;-69
2022/12/24 09:46:08;;;;;;;14.07;1.90;;;11.40;98.00;;;;;;5053348;28;20457;-71
2022/12/24 09:48:39;;;;;;;2.07;1.30;;;11.40;98.00;;;;;;5053251;28;20974;-70
2022/12/24 09:51:09;;;;;;;5.27;1.70;;;11.40;98.00;;;;;;5053253;28;20460;-69
2022/12/24 09:53:41;;;;;;;2.97;1.47;;;11.40;98.00;;;;;;5052425;28;20530;-69
2022/12/24 09:56:14;;;;;;;2.40;1.60;;;11.40;98.00;;;;;;5053353;28;20461;-69
2022/12/24 09:58:45;;;;;;;2.60;1.37;;;11.40;98.00;;;;;;5053033;28;20808;-69
2022/12/24 10:01:14;;;;;;;4.40;1.83;;;11.40;98.00;;;;;;5035273;28;20482;-69
2022/12/24 10:03:45;;;;;;;4.60;1.57;;;11.40;98.00;;;;;;5053054;28;20540;-71
2022/12/24 10:06:16;;;;;;;2.03;1.30;;;11.50;98.00;;;;;;5053509;28;20457;-71
2022/12/24 10:09:02;;;;;;;1.60;1.50;;;11.50;98.00;;;;;;5053433;28;20467;-69
2022/12/24 10:11:36;;;;;;;2.33;1.60;;;11.50;98.00;;;;;;5053240;28;20464;-71
2022/12/24 10:14:16;;;;;;;4.60;1.37;;;11.50;98.00;;;;;;5053013;28;20546;-72
2022/12/24 10:16:52;;;;;;;1.83;1.20;;;11.60;98.00;;;;;;5053057;28;20942;-72
2022/12/24 10:19:26;;;;;;;1.73;1.30;;;11.70;98.00;;;;;;5035178;28;20504;-69
2022/12/24 10:22:05;;;;;;;1.83;1.33;;;11.70;98.00;;;;;;5052717;28;20485;-70
2022/12/24 10:24:39;;;;;;;8.50;1.50;;;11.80;98.00;;;;;;5052654;28;20471;-69
2022/12/24 10:27:13;;;;;;;3.97;1.40;;;12.00;98.00;;;;;;5052769;28;20526;-69
2022/12/24 10:30:02;;;;;;;3.50;1.40;;;12.00;98.00;;;;;;5052430;28;20454;-70
2022/12/24 10:32:33;;;;;;;2.43;1.33;;;12.10;98.00;;;;;;5052363;28;20982;-70
2022/12/24 10:35:15;;;;;;;3.70;1.50;;;12.20;98.00;;;;;;5052491;28;20480;-71
2022/12/24 10:37:44;;;;;;;2.80;1.73;;;12.30;98.00;;;;;;5052231;28;20456;-71
2022/12/24 10:40:16;;;;;;;2.23;1.43;;;12.40;98.00;;;;;;5052221;28;20490;-68
2022/12/24 10:42:44;;;;;;;1.73;1.57;;;12.40;98.00;;;;;;5052098;28;20964;-74
2022/12/24 10:45:18;;;;;;;7.10;1.70;;;12.50;98.00;;;;;;5052244;28;21118;-63
2022/12/24 10:47:50;;;;;;;2.47;1.27;;;12.60;98.00;;;;;;5052254;28;20521;-63
2022/12/24 10:50:24;;;;;;;1.20;1.10;;;13.00;98.00;;;;;;5052487;28;20459;-63
2022/12/24 10:53:01;;;;;;;1.77;1.33;;;13.20;98.00;;;;;;5051845;28;20465;-70
2022/12/24 10:55:28;;;;;;;2.70;1.67;;;13.60;98.00;;;;;;5052127;28;20464;-70
2022/12/24 10:58:01;;;;;;;3.30;1.50;;;13.60;98.00;;;;;;5034413;28;20457;-72
2022/12/24 11:00:29;;;;;;;1.83;1.20;;;13.60;98.00;;;;;;5052300;28;21058;-68
2022/12/24 11:03:20;;;;;;;5.73;1.63;;;13.40;98.00;;;;;;5052135;28;20466;-69
2022/12/24 11:06:10;;;;;;;2.10;1.40;;;13.30;98.00;;;;;;5051881;28;20853;-70
2022/12/24 11:08:39;;;;;;;2.07;1.40;;;13.10;98.00;;;;;;5051840;28;20515;-70
2022/12/24 11:11:09;;;;;;;1.60;1.20;;;12.90;98.00;;;;;;5052217;28;20476;-68
2022/12/24 11:13:43;;;;;;;4.47;1.50;;;12.70;98.00;;;;;;5051027;28;20476;-69
2022/12/24 11:16:27;;;;;;;2.40;1.50;;;12.60;98.00;;;;;;5019258;28;20789;-71
2022/12/24 11:18:56;;;;;;;5.80;1.90;;;12.70;98.00;;;;;;5051606;28;20559;-69
2022/12/24 11:21:26;;;;;;;7.63;1.67;;;12.70;98.00;;;;;;5051377;28;20484;-69
2022/12/24 11:23:56;;;;;;;2.23;1.53;;;12.70;98.00;;;;;;5051179;28;20472;-70
2022/12/24 11:26:25;;;;;;;2.57;1.50;;;12.60;98.00;;;;;;5051468;28;20484;-71
2022/12/24 11:29:15;;;;;;;2.70;1.60;;;12.60;98.00;;;;;;5051705;28;20995;-69
2022/12/24 11:31:43;;;;;;;1.80;1.40;;;12.60;98.00;;;;;;5051467;28;20448;-70
2022/12/24 11:34:25;;;;;;;1.80;1.40;;;12.50;98.00;;;;;;5051393;28;20831;-69
2022/12/24 11:36:57;;;;;;;2.77;1.60;;;12.60;98.00;;;;;;5051206;28;20465;-72
2022/12/24 11:39:25;;;;;;;2.00;1.30;;;12.60;98.00;;;;;;5051473;28;20465;-69
2022/12/24 11:41:54;;;;;;;4.63;1.33;;;12.60;98.00;;;;;;5051255;28;20884;-69
2022/12/24 11:44:26;;;;;;;3.63;1.40;;;12.60;98.00;;;;;;5051507;28;20465;-70
2022/12/24 11:46:56;;;;;;;4.63;1.80;;;12.60;98.00;;;;;;5051547;28;20572;-69
2022/12/24 11:49:25;;;;;;;2.57;1.30;;;12.50;98.00;;;;;;5051581;28;20498;-70
2022/12/24 11:52:18;;;;;;;2.23;1.47;;;12.50;98.00;;;;;;5051703;28;20462;-71
2022/12/24 11:54:56;;;;;;;2.60;1.30;;;12.50;98.00;;;;;;5051327;28;20640;-70
2022/12/24 11:57:28;;;;;;;2.43;1.40;;;12.50;98.00;;;;;;5050521;28;20848;-70
2022/12/24 11:59:55;;;;;;;2.50;1.40;;;12.50;98.00;;;;;;5051564;28;20460;-69
2022/12/24 12:02:26;;;;;;;4.00;1.67;;;12.50;98.00;;;;;;5051170;28;20492;-69
2022/12/24 12:04:57;;;;;;;2.80;1.67;;;12.50;98.00;;;;;;5051076;28;20465;-72
2022/12/24 12:07:30;;;;;;;2.70;1.50;;;12.50;98.00;;;;;;5051506;28;20459;-69
2022/12/24 12:10:00;;;;;;;3.97;1.77;;;12.50;98.00;;;;;;5033827;28;20982;-69
2022/12/24 12:12:33;;;;;;;1.40;1.30;;;12.50;98.00;;;;;;5034068;28;20485;-71
2022/12/24 12:15:05;;;;;;;2.50;1.60;;;12.50;98.00;;;;;;5033239;28;20985;-69
2022/12/24 12:17:36;;;;;;;1.97;1.20;;;12.50;98.00;;;;;;5053183;28;20491;-69
2022/12/24 12:20:07;;;;;;;3.10;1.80;;;12.60;98.00;;;;;;5037750;28;20459;-69
2022/12/24 12:22:45;;;;;;;9.17;1.53;;;12.70;98.00;;;;;;5246156;22;20828;-63
2022/12/24 12:25:21;;;;;;;1.70;1.40;;;12.90;98.00;;;;;;5074667;28;20836;-64
2022/12/24 12:27:52;;;;;;;2.10;1.30;;;13.30;98.00;;;;;;5072794;28;20514;-64
2022/12/24 12:30:21;;;;;;;2.90;1.57;;;13.70;98.00;;;;;;5074240;28;20552;-65
2022/12/24 12:32:53;;;;;;;1.30;1.10;;;13.90;98.00;;;;;;5074826;28;20465;-64
2022/12/24 12:35:26;;;;;;;3.60;1.40;;;14.10;98.00;;;;;;5074066;28;20465;-65
2022/12/24 12:38:00;;;;;;;3.43;1.50;;;14.40;98.00;;;;;;5074374;28;20465;-65
2022/12/24 12:40:39;;;;;;;1.63;1.20;;;14.40;98.00;;;;;;5074326;28;20525;-65
2022/12/24 12:43:19;;;;;;;2.07;1.47;;;14.60;98.00;;;;;;5074767;28;21106;-65
2022/12/24 12:45:54;;;;;;;1.80;1.40;;;14.80;98.00;;;;;;5074782;28;20514;-66
2022/12/24 12:48:45;;;;;;;2.63;1.63;;;14.60;98.00;;;;;;5074168;28;20452;-67
2022/12/24 12:51:20;;;;;;;3.10;1.33;;;14.40;98.00;;;;;;5079009;28;20474;-66
2022/12/24 12:54:08;;;;;;;1.73;1.40;;;14.10;98.00;;;;;;5089886;28;20521;-66
2022/12/24 12:56:38;;;;;;;2.30;1.53;;;13.90;98.00;;;;;;5094295;28;21086;-65
2022/12/24 12:59:12;;;;;;;4.03;1.40;;;13.80;98.00;;;;;;5084032;28;20460;-65
2022/12/24 13:01:50;;;;;;;3.07;1.80;;;13.70;98.00;;;;;;5073306;28;20847;-65
2022/12/24 13:04:47;;;;;;;4.30;1.50;;;13.60;98.00;;;;;;5073377;28;20456;-65
2022/12/24 13:08:00;;;;;;;2.10;1.60;;;13.50;98.00;;;;;;5070771;28;20476;-65
2022/12/24 13:10:53;;;;;;;4.03;1.40;;;13.40;98.00;;;;;;5073266;28;20458;-64
2022/12/24 13:13:45;;;;;;;4.07;2.03;;;13.40;98.00;;;;;;5057526;28;20471;-66
2022/12/24 13:16:37;;;;;;;4.90;2.40;;;13.40;98.00;;;;;;5073306;28;20944;-64